sensor_id;sensor_type;location;lat;lon;timestamp;pressure;altitude;pressure_sealevel;temperature;humidity
36598;BME280;22607;49.550;11.940;2023-04-25T00:00:15;96156.75;;;6.82;100.00
36598;BME280;22607;49.550;11.940;2023-04-25T00:02:43;96150.25;;;6.78;100.00
36598;BME280;22607;49.550;11.940;2023-04-25T00:05:10;96157.06;;;6.88;100.00
36598;BME280;22607;49.550;11.940;2023-04-25T00:07:37;96159.53;;;6.89;100.00
36598;BME280;22607;49.550;11.940;2023-04-25T00:10:04;96159.56;;;6.73;100.00
36598;BME280;22607;49.550;11.940;2023-04-25T00:12:31;96157.13;;;6.71;100.00
36598;BME280;22607;49.550;11.940;2023-04-25T00:14:57;96155.94;;;6.90;100.00
36598;BME280;22607;49.550;11.940;2023-04-25T00:17:24;96149.22;;;7.04;100.00
36598;BME280;22607;49.550;11.940;2023-04-25T00:19:51;96153.00;;;6.77;100.00
36598;BME280;22607;49.550;11.940;2023-04-25T00:22:18;96154.00;;;6.84;100.00
36598;BME280;22607;49.550;11.940;2023-04-25T00:24:45;96147.97;;;6.75;100.00
36598;BME280;22607;49.550;11.940;2023-04-25T00:27:11;96148.94;;;6.91;100.00
36598;BME280;22607;49.550;11.940;2023-04-25T00:29:38;96146.47;;;6.89;100.00
36598;BME280;22607;49.550;11.940;2023-04-25T00:32:04;96145.00;;;6.87;100.00
36598;BME280;22607;49.550;11.940;2023-04-25T00:34:31;96141.44;;;6.71;100.00
36598;BME280;22607;49.550;11.940;2023-04-25T00:36:57;96137.03;;;6.80;100.00
36598;BME280;22607;49.550;11.940;2023-04-25T00:39:23;96139.94;;;6.93;100.00
36598;BME280;22607;49.550;11.940;2023-04-25T00:41:50;96134.25;;;6.98;100.00
36598;BME280;22607;49.550;11.940;2023-04-25T00:44:19;96126.72;;;6.95;100.00
36598;BME280;22607;49.550;11.940;2023-04-25T00:46:47;96132.94;;;6.94;100.00
36598;BME280;22607;49.550;11.940;2023-04-25T00:49:13;96120.38;;;6.89;100.00
36598;BME280;22607;49.550;11.940;2023-04-25T00:51:42;96119.59;;;6.64;100.00
36598;BME280;22607;49.550;11.940;2023-04-25T00:54:11;96121.88;;;6.75;100.00
36598;BME280;22607;49.550;11.940;2023-04-25T00:56:38;96115.69;;;6.68;100.00
36598;BME280;22607;49.550;11.940;2023-04-25T00:59:04;96115.34;;;6.79;100.00
36598;BME280;22607;49.550;11.940;2023-04-25T01:01:31;96120.84;;;6.93;100.00
36598;BME280;22607;49.550;11.940;2023-04-25T01:03:58;96110.06;;;6.96;100.00
36598;BME280;22607;49.550;11.940;2023-04-25T01:06:25;96115.47;;;6.86;100.00
36598;BME280;22607;49.550;11.940;2023-04-25T01:08:52;96116.59;;;6.92;100.00
36598;BME280;22607;49.550;11.940;2023-04-25T01:11:18;96118.69;;;7.05;100.00
36598;BME280;22607;49.550;11.940;2023-04-25T01:13:44;96124.91;;;6.95;100.00
36598;BME280;22607;49.550;11.940;2023-04-25T01:16:12;96123.91;;;7.13;100.00
36598;BME280;22607;49.550;11.940;2023-04-25T01:18:39;96116.75;;;7.07;100.00
36598;BME280;22607;49.550;11.940;2023-04-25T01:21:06;96110.06;;;6.96;100.00
36598;BME280;22607;49.550;11.940;2023-04-25T01:23:33;96111.53;;;6.99;100.00
36598;BME280;22607;49.550;11.940;2023-04-25T01:26:00;96117.28;;;6.94;100.00
36598;BME280;22607;49.550;11.940;2023-04-25T01:28:27;96111.38;;;6.92;100.00
36598;BME280;22607;49.550;11.940;2023-04-25T01:30:54;96119.91;;;6.86;100.00
36598;BME280;22607;49.550;11.940;2023-04-25T01:33:21;96114.81;;;6.92;100.00
36598;BME280;22607;49.550;11.940;2023-04-25T01:35:47;96108.31;;;6.88;100.00
36598;BME280;22607;49.550;11.940;2023-04-25T01:38:14;96108.16;;;6.90;100.00
36598;BME280;22607;49.550;11.940;2023-04-25T01:40:41;96110.75;;;6.90;100.00
36598;BME280;22607;49.550;11.940;2023-04-25T01:43:07;96106.84;;;6.86;100.00
36598;BME280;22607;49.550;11.940;2023-04-25T01:45:38;96113.06;;;6.76;100.00
36598;BME280;22607;49.550;11.940;2023-04-25T01:48:09;96115.00;;;6.82;100.00
36598;BME280;22607;49.550;11.940;2023-04-25T01:50:36;96114.13;;;7.07;100.00
36598;BME280;22607;49.550;11.940;2023-04-25T01:53:03;96107.44;;;7.04;100.00
36598;BME280;22607;49.550;11.940;2023-04-25T01:55:30;96112.00;;;7.11;100.00
36598;BME280;22607;49.550;11.940;2023-04-25T01:57:56;96115.44;;;7.11;100.00
36598;BME280;22607;49.550;11.940;2023-04-25T02:00:23;96109.59;;;7.01;100.00
36598;BME280;22607;49.550;11.940;2023-04-25T02:02:49;96113.63;;;7.12;100.00
36598;BME280;22607;49.550;11.940;2023-04-25T02:05:17;96111.53;;;7.07;100.00
36598;BME280;22607;49.550;11.940;2023-04-25T02:07:43;96110.84;;;7.05;100.00
36598;BME280;22607;49.550;11.940;2023-04-25T02:10:10;96105.16;;;7.09;100.00
36598;BME280;22607;49.550;11.940;2023-04-25T02:12:36;96110.97;;;7.20;100.00
36598;BME280;22607;49.550;11.940;2023-04-25T02:15:04;96102.16;;;7.21;100.00
36598;BME280;22607;49.550;11.940;2023-04-25T02:17:30;96104.13;;;7.27;100.00
36598;BME280;22607;49.550;11.940;2023-04-25T02:19:57;96098.22;;;7.25;100.00
36598;BME280;22607;49.550;11.940;2023-04-25T02:22:24;96104.59;;;7.31;100.00
36598;BME280;22607;49.550;11.940;2023-04-25T02:24:50;96102.56;;;7.41;100.00
36598;BME280;22607;49.550;11.940;2023-04-25T02:27:17;96098.22;;;7.33;100.00
36598;BME280;22607;49.550;11.940;2023-04-25T02:29:43;96090.50;;;7.40;100.00
36598;BME280;22607;49.550;11.940;2023-04-25T02:32:10;96093.94;;;7.41;100.00
36598;BME280;22607;49.550;11.940;2023-04-25T02:34:36;96085.16;;;7.33;100.00
36598;BME280;22607;49.550;11.940;2023-04-25T02:37:03;96080.88;;;7.41;100.00
36598;BME280;22607;49.550;11.940;2023-04-25T02:39:30;96085.47;;;7.30;100.00
36598;BME280;22607;49.550;11.940;2023-04-25T02:41:56;96078.16;;;7.26;100.00
36598;BME280;22607;49.550;11.940;2023-04-25T02:44:22;96079.31;;;7.23;100.00
36598;BME280;22607;49.550;11.940;2023-04-25T02:46:49;96071.09;;;7.34;100.00
36598;BME280;22607;49.550;11.940;2023-04-25T02:49:15;96073.66;;;7.43;100.00
36598;BME280;22607;49.550;11.940;2023-04-25T02:51:42;96074.63;;;7.50;100.00
36598;BME280;22607;49.550;11.940;2023-04-25T02:54:08;96071.72;;;7.45;100.00
36598;BME280;22607;49.550;11.940;2023-04-25T02:56:35;96073.34;;;7.46;100.00
36598;BME280;22607;49.550;11.940;2023-04-25T02:59:01;96071.03;;;7.51;100.00
36598;BME280;22607;49.550;11.940;2023-04-25T03:01:27;96072.66;;;7.52;100.00
36598;BME280;22607;49.550;11.940;2023-04-25T03:03:54;96070.31;;;7.57;100.00
36598;BME280;22607;49.550;11.940;2023-04-25T03:06:21;96073.97;;;7.48;100.00
36598;BME280;22607;49.550;11.940;2023-04-25T03:08:47;96068.44;;;7.43;100.00
36598;BME280;22607;49.550;11.940;2023-04-25T03:11:13;96070.06;;;7.12;100.00
36598;BME280;22607;49.550;11.940;2023-04-25T03:13:40;96070.78;;;7.29;100.00
36598;BME280;22607;49.550;11.940;2023-04-25T03:16:06;96059.69;;;7.35;100.00
36598;BME280;22607;49.550;11.940;2023-04-25T03:18:33;96069.22;;;7.52;100.00
36598;BME280;22607;49.550;11.940;2023-04-25T03:20:59;96058.47;;;7.46;100.00
36598;BME280;22607;49.550;11.940;2023-04-25T03:23:25;96060.88;;;7.25;100.00
36598;BME280;22607;49.550;11.940;2023-04-25T03:25:52;96065.78;;;7.19;100.00
36598;BME280;22607;49.550;11.940;2023-04-25T03:28:18;96058.41;;;7.23;100.00
36598;BME280;22607;49.550;11.940;2023-04-25T03:30:46;96055.09;;;7.38;100.00
36598;BME280;22607;49.550;11.940;2023-04-25T03:33:12;96063.56;;;7.40;100.00
36598;BME280;22607;49.550;11.940;2023-04-25T03:35:38;96054.53;;;7.19;100.00
36598;BME280;22607;49.550;11.940;2023-04-25T03:38:05;96049.63;;;7.16;100.00
36598;BME280;22607;49.550;11.940;2023-04-25T03:40:31;96048.06;;;7.38;100.00
36598;BME280;22607;49.550;11.940;2023-04-25T03:42:58;96047.84;;;7.48;100.00
36598;BME280;22607;49.550;11.940;2023-04-25T03:45:24;96043.31;;;7.42;100.00
36598;BME280;22607;49.550;11.940;2023-04-25T03:47:51;96051.47;;;7.39;100.00
36598;BME280;22607;49.550;11.940;2023-04-25T03:50:17;96051.50;;;7.30;100.00
36598;BME280;22607;49.550;11.940;2023-04-25T03:52:44;96048.22;;;7.45;100.00
36598;BME280;22607;49.550;11.940;2023-04-25T03:55:10;96053.78;;;7.33;100.00
36598;BME280;22607;49.550;11.940;2023-04-25T03:57:36;96053.78;;;7.33;100.00
36598;BME280;22607;49.550;11.940;2023-04-25T04:00:03;96052.78;;;7.43;100.00
36598;BME280;22607;49.550;11.940;2023-04-25T04:02:30;96053.63;;;7.35;100.00
36598;BME280;22607;49.550;11.940;2023-04-25T04:04:57;96054.53;;;7.19;100.00
36598;BME280;22607;49.550;11.940;2023-04-25T04:07:24;96059.13;;;7.08;100.00
36598;BME280;22607;49.550;11.940;2023-04-25T04:09:50;96053.41;;;7.05;100.00
36598;BME280;22607;49.550;11.940;2023-04-25T04:12:17;96051.63;;;7.05;100.00
36598;BME280;22607;49.550;11.940;2023-04-25T04:14:43;96042.78;;;7.15;100.00
36598;BME280;22607;49.550;11.940;2023-04-25T04:17:09;96042.41;;;7.26;100.00
36598;BME280;22607;49.550;11.940;2023-04-25T04:19:36;96045.66;;;7.28;100.00
36598;BME280;22607;49.550;11.940;2023-04-25T04:22:02;96048.97;;;7.22;100.00
36598;BME280;22607;49.550;11.940;2023-04-25T04:24:29;96053.53;;;7.20;100.00
36598;BME280;22607;49.550;11.940;2023-04-25T04:26:55;96049.25;;;7.27;100.00
36598;BME280;22607;49.550;11.940;2023-04-25T04:29:23;96052.81;;;7.34;100.00
36598;BME280;22607;49.550;11.940;2023-04-25T04:31:49;96054.75;;;7.41;100.00
36598;BME280;22607;49.550;11.940;2023-04-25T04:34:17;96055.72;;;7.40;100.00
36598;BME280;22607;49.550;11.940;2023-04-25T04:36:44;96056.41;;;7.33;100.00
36598;BME280;22607;49.550;11.940;2023-04-25T04:39:12;96059.06;;;7.25;100.00
36598;BME280;22607;49.550;11.940;2023-04-25T04:41:40;96054.97;;;7.22;100.00
36598;BME280;22607;49.550;11.940;2023-04-25T04:44:06;96059.63;;;7.44;100.00
36598;BME280;22607;49.550;11.940;2023-04-25T04:46:35;96055.91;;;7.38;100.00
36598;BME280;22607;49.550;11.940;2023-04-25T04:49:08;96054.88;;;7.47;100.00
36598;BME280;22607;49.550;11.940;2023-04-25T04:51:34;96058.59;;;7.53;100.00
36598;BME280;22607;49.550;11.940;2023-04-25T04:54:01;96056.09;;;7.60;100.00
36598;BME280;22607;49.550;11.940;2023-04-25T04:56:29;96057.81;;;7.44;100.00
36598;BME280;22607;49.550;11.940;2023-04-25T04:58:57;96050.13;;;7.51;100.00
36598;BME280;22607;49.550;11.940;2023-04-25T05:01:24;96051.91;;;7.51;100.00
36598;BME280;22607;49.550;11.940;2023-04-25T05:03:51;96052.47;;;7.38;100.00
36598;BME280;22607;49.550;11.940;2023-04-25T05:06:19;96050.25;;;7.26;100.00
36598;BME280;22607;49.550;11.940;2023-04-25T05:08:45;96058.19;;;7.33;100.00
36598;BME280;22607;49.550;11.940;2023-04-25T05:11:12;96051.06;;;7.27;100.00
36598;BME280;22607;49.550;11.940;2023-04-25T05:13:38;96048.56;;;7.33;100.00
36598;BME280;22607;49.550;11.940;2023-04-25T05:16:05;96051.47;;;7.39;100.00
36598;BME280;22607;49.550;11.940;2023-04-25T05:18:31;96045.47;;;7.38;100.00
36598;BME280;22607;49.550;11.940;2023-04-25T05:20:58;96041.44;;;7.27;100.00
36598;BME280;22607;49.550;11.940;2023-04-25T05:23:24;96042.41;;;7.26;100.00
36598;BME280;22607;49.550;11.940;2023-04-25T05:25:51;96042.50;;;7.41;100.00
36598;BME280;22607;49.550;11.940;2023-04-25T05:28:17;96042.75;;;7.55;100.00
36598;BME280;22607;49.550;11.940;2023-04-25T05:30:43;96040.38;;;7.45;100.00
36598;BME280;22607;49.550;11.940;2023-04-25T05:33:10;96036.53;;;7.56;100.00
36598;BME280;22607;49.550;11.940;2023-04-25T05:35:36;96038.34;;;7.55;100.00
36598;BME280;22607;49.550;11.940;2023-04-25T05:38:03;96040.38;;;7.68;100.00
36598;BME280;22607;49.550;11.940;2023-04-25T05:40:29;96046.72;;;7.74;100.00
36598;BME280;22607;49.550;11.940;2023-04-25T05:42:56;96041.75;;;7.56;100.00
36598;BME280;22607;49.550;11.940;2023-04-25T05:45:22;96042.66;;;7.40;100.00
36598;BME280;22607;49.550;11.940;2023-04-25T05:47:49;96047.94;;;7.63;100.00
36598;BME280;22607;49.550;11.940;2023-04-25T05:50:16;96053.56;;;7.75;100.00
36598;BME280;22607;49.550;11.940;2023-04-25T05:52:42;96054.91;;;7.71;100.00
36598;BME280;22607;49.550;11.940;2023-04-25T05:55:08;96052.56;;;7.76;100.00
36598;BME280;22607;49.550;11.940;2023-04-25T05:57:35;96058.50;;;7.93;100.00
36598;BME280;22607;49.550;11.940;2023-04-25T06:00:02;96055.84;;;7.78;100.00
36598;BME280;22607;49.550;11.940;2023-04-25T06:02:29;96052.69;;;7.83;100.00
36598;BME280;22607;49.550;11.940;2023-04-25T06:04:56;96054.44;;;7.91;100.00
36598;BME280;22607;49.550;11.940;2023-04-25T06:07:22;96052.09;;;7.96;100.00
36598;BME280;22607;49.550;11.940;2023-04-25T06:09:49;96058.31;;;7.95;100.00
36598;BME280;22607;49.550;11.940;2023-04-25T06:12:15;96051.38;;;8.10;100.00
36598;BME280;22607;49.550;11.940;2023-04-25T06:14:42;96054.72;;;8.19;100.00
36598;BME280;22607;49.550;11.940;2023-04-25T06:17:08;96053.97;;;8.10;100.00
36598;BME280;22607;49.550;11.940;2023-04-25T06:19:35;96060.84;;;8.11;100.00
36598;BME280;22607;49.550;11.940;2023-04-25T06:22:02;96053.38;;;8.23;100.00
36598;BME280;22607;49.550;11.940;2023-04-25T06:24:28;96062.13;;;8.16;100.00
36598;BME280;22607;49.550;11.940;2023-04-25T06:26:55;96055.06;;;8.16;100.00
36598;BME280;22607;49.550;11.940;2023-04-25T06:29:21;96062.78;;;8.33;100.00
36598;BME280;22607;49.550;11.940;2023-04-25T06:31:48;96068.75;;;8.41;100.00
36598;BME280;22607;49.550;11.940;2023-04-25T06:34:15;96062.06;;;8.62;100.00
36598;BME280;22607;49.550;11.940;2023-04-25T06:36:41;96065.84;;;8.75;100.00
36598;BME280;22607;49.550;11.940;2023-04-25T06:39:07;96065.78;;;8.45;100.00
36598;BME280;22607;49.550;11.940;2023-04-25T06:41:35;96068.69;;;8.50;100.00
36598;BME280;22607;49.550;11.940;2023-04-25T06:44:01;96068.50;;;8.51;100.00
36598;BME280;22607;49.550;11.940;2023-04-25T06:46:28;96072.59;;;8.54;100.00
36598;BME280;22607;49.550;11.940;2023-04-25T06:48:54;96068.56;;;8.43;100.00
36598;BME280;22607;49.550;11.940;2023-04-25T06:51:21;96076.78;;;8.40;100.00
36598;BME280;22607;49.550;11.940;2023-04-25T06:53:49;96072.00;;;8.44;100.00
36598;BME280;22607;49.550;11.940;2023-04-25T06:56:16;96069.84;;;8.47;100.00
36598;BME280;22607;49.550;11.940;2023-04-25T06:58:42;96078.59;;;8.39;100.00
36598;BME280;22607;49.550;11.940;2023-04-25T07:01:09;96074.22;;;8.55;100.00
36598;BME280;22607;49.550;11.940;2023-04-25T07:03:36;96080.28;;;8.56;100.00
36598;BME280;22607;49.550;11.940;2023-04-25T07:06:04;96076.13;;;8.61;100.00
36598;BME280;22607;49.550;11.940;2023-04-25T07:08:30;96083.25;;;8.52;100.00
36598;BME280;22607;49.550;11.940;2023-04-25T07:10:57;96077.69;;;8.47;100.00
36598;BME280;22607;49.550;11.940;2023-04-25T07:13:23;96080.22;;;8.64;100.00
36598;BME280;22607;49.550;11.940;2023-04-25T07:15:49;96078.69;;;8.85;100.00
36598;BME280;22607;49.550;11.940;2023-04-25T07:18:16;96085.25;;;8.65;100.00
36598;BME280;22607;49.550;11.940;2023-04-25T07:20:43;96087.44;;;8.77;100.00
36598;BME280;22607;49.550;11.940;2023-04-25T07:23:09;96089.06;;;8.78;100.00
36598;BME280;22607;49.550;11.940;2023-04-25T07:25:36;96084.09;;;8.83;100.00
36598;BME280;22607;49.550;11.940;2023-04-25T07:28:02;96086.97;;;8.88;100.00
36598;BME280;22607;49.550;11.940;2023-04-25T07:30:29;96097.66;;;9.02;100.00
36598;BME280;22607;49.550;11.940;2023-04-25T07:32:55;96091.16;;;8.98;100.00
36598;BME280;22607;49.550;11.940;2023-04-25T07:35:22;96088.06;;;8.79;100.00
36598;BME280;22607;49.550;11.940;2023-04-25T07:37:48;96095.81;;;8.57;100.00
36598;BME280;22607;49.550;11.940;2023-04-25T07:40:15;96103.94;;;8.62;100.00
36598;BME280;22607;49.550;11.940;2023-04-25T07:42:42;96105.47;;;8.57;100.00
36598;BME280;22607;49.550;11.940;2023-04-25T07:45:09;96111.63;;;8.40;100.00
36598;BME280;22607;49.550;11.940;2023-04-25T07:47:35;96112.44;;;8.41;100.00
36598;BME280;22607;49.550;11.940;2023-04-25T07:50:02;96107.94;;;8.50;100.00
36598;BME280;22607;49.550;11.940;2023-04-25T07:52:29;96115.47;;;8.53;100.00
36598;BME280;22607;49.550;11.940;2023-04-25T07:54:56;96114.13;;;8.57;100.00
36598;BME280;22607;49.550;11.940;2023-04-25T07:57:23;96110.63;;;8.65;100.00
36598;BME280;22607;49.550;11.940;2023-04-25T07:59:50;96108.50;;;8.84;100.00
36598;BME280;22607;49.550;11.940;2023-04-25T08:02:17;96117.34;;;8.98;100.00
36598;BME280;22607;49.550;11.940;2023-04-25T08:04:43;96115.91;;;9.10;100.00
36598;BME280;22607;49.550;11.940;2023-04-25T08:07:10;96118.59;;;9.02;100.00
36598;BME280;22607;49.550;11.940;2023-04-25T08:09:37;96127.19;;;8.96;100.00
36598;BME280;22607;49.550;11.940;2023-04-25T08:12:03;96116.16;;;8.85;100.00
36598;BME280;22607;49.550;11.940;2023-04-25T08:14:30;96119.88;;;9.06;99.15
36598;BME280;22607;49.550;11.940;2023-04-25T08:17:02;96124.56;;;8.96;94.09
36598;BME280;22607;49.550;11.940;2023-04-25T08:19:29;96134.13;;;8.88;98.88
36598;BME280;22607;49.550;11.940;2023-04-25T08:21:57;96136.31;;;9.00;100.00
36598;BME280;22607;49.550;11.940;2023-04-25T08:24:25;96141.19;;;9.03;100.00
36598;BME280;22607;49.550;11.940;2023-04-25T08:26:51;96139.75;;;9.15;98.43
36598;BME280;22607;49.550;11.940;2023-04-25T08:29:18;96139.19;;;9.35;94.10
36598;BME280;22607;49.550;11.940;2023-04-25T08:31:44;96154.66;;;9.15;95.81
36598;BME280;22607;49.550;11.940;2023-04-25T08:34:11;96146.88;;;9.22;97.80
36598;BME280;22607;49.550;11.940;2023-04-25T08:36:38;96157.28;;;9.00;94.36
36598;BME280;22607;49.550;11.940;2023-04-25T08:39:05;96152.38;;;8.97;99.04
36598;BME280;22607;49.550;11.940;2023-04-25T08:41:33;96158.63;;;9.11;98.93
36598;BME280;22607;49.550;11.940;2023-04-25T08:43:59;96162.22;;;9.10;100.00
36598;BME280;22607;49.550;11.940;2023-04-25T08:46:27;96160.34;;;9.03;100.00
36598;BME280;22607;49.550;11.940;2023-04-25T08:48:54;96164.94;;;9.16;100.00
36598;BME280;22607;49.550;11.940;2023-04-25T08:51:24;96170.25;;;9.08;100.00
36598;BME280;22607;49.550;11.940;2023-04-25T08:53:52;96178.25;;;9.30;98.05
36598;BME280;22607;49.550;11.940;2023-04-25T08:56:22;96178.78;;;9.10;100.00
36598;BME280;22607;49.550;11.940;2023-04-25T08:58:51;96180.41;;;9.11;100.00
36598;BME280;22607;49.550;11.940;2023-04-25T09:01:18;96179.69;;;9.32;100.00
36598;BME280;22607;49.550;11.940;2023-04-25T09:03:44;96191.34;;;9.45;100.00
36598;BME280;22607;49.550;11.940;2023-04-25T09:06:13;96182.50;;;9.46;100.00
36598;BME280;22607;49.550;11.940;2023-04-25T09:08:40;96197.44;;;9.45;100.00
36598;BME280;22607;49.550;11.940;2023-04-25T09:11:07;96192.63;;;9.34;100.00
36598;BME280;22607;49.550;11.940;2023-04-25T09:13:33;96190.44;;;9.53;100.00
36598;BME280;22607;49.550;11.940;2023-04-25T09:16:00;96200.13;;;9.37;100.00
36598;BME280;22607;49.550;11.940;2023-04-25T09:18:28;96201.56;;;9.25;100.00
36598;BME280;22607;49.550;11.940;2023-04-25T09:20:56;96200.06;;;9.07;100.00
36598;BME280;22607;49.550;11.940;2023-04-25T09:23:27;96198.66;;;9.19;100.00
36598;BME280;22607;49.550;11.940;2023-04-25T09:25:53;96198.50;;;9.66;100.00
36598;BME280;22607;49.550;11.940;2023-04-25T09:28:23;96192.88;;;9.69;100.00
36598;BME280;22607;49.550;11.940;2023-04-25T09:30:56;96200.09;;;9.67;100.00
36598;BME280;22607;49.550;11.940;2023-04-25T09:33:30;96204.38;;;9.38;100.00
36598;BME280;22607;49.550;11.940;2023-04-25T09:36:06;96208.78;;;9.23;100.00
36598;BME280;22607;49.550;11.940;2023-04-25T09:38:43;96195.38;;;9.78;100.00
36598;BME280;22607;49.550;11.940;2023-04-25T09:41:10;96201.63;;;9.92;100.00
36598;BME280;22607;49.550;11.940;2023-04-25T09:43:37;96201.00;;;10.27;100.00
36598;BME280;22607;49.550;11.940;2023-04-25T09:46:10;96200.50;;;10.38;93.47
36598;BME280;22607;49.550;11.940;2023-04-25T09:48:38;96196.44;;;10.35;97.65
36598;BME280;22607;49.550;11.940;2023-04-25T09:51:11;96195.97;;;10.69;93.38
36598;BME280;22607;49.550;11.940;2023-04-25T09:53:41;96203.38;;;10.43;94.36
36598;BME280;22607;49.550;11.940;2023-04-25T09:56:09;96197.09;;;10.59;94.72
36598;BME280;22607;49.550;11.940;2023-04-25T09:58:36;96203.69;;;10.33;91.65
36598;BME280;22607;49.550;11.940;2023-04-25T10:01:03;96199.97;;;10.06;94.30
36598;BME280;22607;49.550;11.940;2023-04-25T10:03:30;96210.88;;;9.72;98.42
36598;BME280;22607;49.550;11.940;2023-04-25T10:06:01;96197.88;;;10.16;97.86
36598;BME280;22607;49.550;11.940;2023-04-25T10:08:31;96202.09;;;10.76;92.08
36598;BME280;22607;49.550;11.940;2023-04-25T10:10:59;96200.59;;;10.88;84.93
36598;BME280;22607;49.550;11.940;2023-04-25T10:13:26;96196.72;;;11.13;87.91
36598;BME280;22607;49.550;11.940;2023-04-25T10:15:54;96199.59;;;11.18;88.47
36598;BME280;22607;49.550;11.940;2023-04-25T10:18:21;96204.97;;;11.03;88.59
36598;BME280;22607;49.550;11.940;2023-04-25T10:20:48;96197.41;;;10.93;88.29
36598;BME280;22607;49.550;11.940;2023-04-25T10:23:15;96204.56;;;10.77;85.96
36598;BME280;22607;49.550;11.940;2023-04-25T10:25:43;96206.88;;;10.66;82.07
36598;BME280;22607;49.550;11.940;2023-04-25T10:28:10;96205.97;;;10.58;86.88
36598;BME280;22607;49.550;11.940;2023-04-25T10:30:36;96212.38;;;10.71;84.93
36598;BME280;22607;49.550;11.940;2023-04-25T10:33:03;96210.06;;;10.61;82.39
36598;BME280;22607;49.550;11.940;2023-04-25T10:35:42;96192.25;;;10.56;86.21
36598;BME280;22607;49.550;11.940;2023-04-25T10:38:11;96194.16;;;10.91;81.55
36598;BME280;22607;49.550;11.940;2023-04-25T10:40:39;96195.34;;;11.17;80.94
36598;BME280;22607;49.550;11.940;2023-04-25T10:45:52;96192.75;;;11.52;77.87
36598;BME280;22607;49.550;11.940;2023-04-25T10:48:28;96188.53;;;11.58;77.11
36598;BME280;22607;49.550;11.940;2023-04-25T10:51:08;96191.44;;;11.77;73.10
36598;BME280;22607;49.550;11.940;2023-04-25T10:53:35;96196.13;;;11.39;71.18
36598;BME280;22607;49.550;11.940;2023-04-25T10:56:17;96196.84;;;11.62;75.17
36598;BME280;22607;49.550;11.940;2023-04-25T10:58:45;96179.34;;;12.72;67.41
36598;BME280;22607;49.550;11.940;2023-04-25T11:01:15;96185.41;;;13.33;71.11
36598;BME280;22607;49.550;11.940;2023-04-25T11:03:42;96174.66;;;14.01;62.72
36598;BME280;22607;49.550;11.940;2023-04-25T11:06:36;96177.13;;;13.96;62.54
36598;BME280;22607;49.550;11.940;2023-04-25T11:08:59;96183.78;;;13.19;63.54
36598;BME280;22607;49.550;11.940;2023-04-25T11:11:27;96187.25;;;12.58;68.29
36598;BME280;22607;49.550;11.940;2023-04-25T11:13:55;96183.94;;;12.29;66.48
36598;BME280;22607;49.550;11.940;2023-04-25T11:16:23;96176.72;;;12.65;66.09
36598;BME280;22607;49.550;11.940;2023-04-25T11:18:56;96184.00;;;12.56;63.98
36598;BME280;22607;49.550;11.940;2023-04-25T11:21:23;96182.41;;;12.82;64.99
36598;BME280;22607;49.550;11.940;2023-04-25T11:23:51;96177.06;;;13.57;62.91
36598;BME280;22607;49.550;11.940;2023-04-25T11:26:19;96171.22;;;13.28;63.87
36598;BME280;22607;49.550;11.940;2023-04-25T11:28:46;96164.88;;;13.62;59.57
36598;BME280;22607;49.550;11.940;2023-04-25T11:31:15;96163.13;;;13.88;59.28
36598;BME280;22607;49.550;11.940;2023-04-25T11:33:41;96157.41;;;14.37;57.26
36598;BME280;22607;49.550;11.940;2023-04-25T11:36:08;96170.97;;;13.56;55.92
36598;BME280;22607;49.550;11.940;2023-04-25T11:38:35;96169.38;;;13.21;55.72
36598;BME280;22607;49.550;11.940;2023-04-25T11:41:02;96166.59;;;12.89;57.57
36598;BME280;22607;49.550;11.940;2023-04-25T11:43:28;96174.72;;;13.01;57.45
36598;BME280;22607;49.550;11.940;2023-04-25T11:45:55;96171.03;;;12.68;57.94
36598;BME280;22607;49.550;11.940;2023-04-25T11:48:21;96179.53;;;12.43;59.10
36598;BME280;22607;49.550;11.940;2023-04-25T11:50:51;96187.59;;;12.21;60.30
36598;BME280;22607;49.550;11.940;2023-04-25T11:53:18;96179.88;;;12.27;61.00
36598;BME280;22607;49.550;11.940;2023-04-25T11:55:44;96183.97;;;12.43;61.22
36598;BME280;22607;49.550;11.940;2023-04-25T11:58:11;96189.72;;;12.04;58.00
36598;BME280;22607;49.550;11.940;2023-04-25T12:00:41;96189.91;;;11.96;59.82
36598;BME280;22607;49.550;11.940;2023-04-25T12:03:15;96193.63;;;12.08;59.28
36598;BME280;22607;49.550;11.940;2023-04-25T12:05:44;96181.91;;;12.18;60.18
36598;BME280;22607;49.550;11.940;2023-04-25T12:08:11;96180.31;;;12.44;55.88
36598;BME280;22607;49.550;11.940;2023-04-25T12:10:38;96177.72;;;12.71;59.19
36598;BME280;22607;49.550;11.940;2023-04-25T12:13:22;96176.72;;;13.06;58.50
36598;BME280;22607;49.550;11.940;2023-04-25T12:15:49;96172.25;;;13.20;57.67
36598;BME280;22607;49.550;11.940;2023-04-25T12:18:20;96179.91;;;13.35;57.71
36598;BME280;22607;49.550;11.940;2023-04-25T12:20:47;96191.47;;;13.54;56.99
36598;BME280;22607;49.550;11.940;2023-04-25T12:23:13;96191.28;;;13.56;55.48
36598;BME280;22607;49.550;11.940;2023-04-25T12:25:41;96183.78;;;13.32;54.90
36598;BME280;22607;49.550;11.940;2023-04-25T12:31:00;96190.75;;;13.93;54.17
36598;BME280;22607;49.550;11.940;2023-04-25T12:33:27;96190.13;;;13.97;51.09
36598;BME280;22607;49.550;11.940;2023-04-25T12:35:53;96198.13;;;13.77;51.38
36598;BME280;22607;49.550;11.940;2023-04-25T12:38:21;96187.13;;;14.26;51.44
36598;BME280;22607;49.550;11.940;2023-04-25T12:40:48;96182.16;;;14.11;50.50
36598;BME280;22607;49.550;11.940;2023-04-25T12:43:14;96203.25;;;13.58;50.79
36598;BME280;22607;49.550;11.940;2023-04-25T12:45:41;96208.69;;;13.70;49.23
36598;BME280;22607;49.550;11.940;2023-04-25T12:48:07;96211.13;;;13.72;49.88
36598;BME280;22607;49.550;11.940;2023-04-25T12:50:34;96202.50;;;13.97;48.94
36598;BME280;22607;49.550;11.940;2023-04-25T12:53:01;96199.22;;;14.08;50.00
36598;BME280;22607;49.550;11.940;2023-04-25T12:55:28;96200.28;;;13.94;48.90